createdAt,value
2023-01-18T00:00:51.838Z,116943.30
2023-01-18T00:01:54.389Z,116943.30
2023-01-18T00:02:57.200Z,116943.30
2023-01-18T00:03:59.811Z,116943.30
2023-01-18T00:05:02.360Z,116943.30
2023-01-18T00:06:04.873Z,116943.30
2023-01-18T00:07:07.176Z,116943.30
2023-01-18T00:08:09.575Z,116943.30
2023-01-18T00:09:12.007Z,116943.30
2023-01-18T00:10:14.588Z,116943.30
2023-01-18T00:11:17.144Z,116943.30
2023-01-18T00:12:19.747Z,116943.30
2023-01-18T00:13:21.955Z,116943.30
2023-01-18T00:14:24.358Z,116943.30
2023-01-18T00:15:26.793Z,116943.30
2023-01-18T00:16:29.365Z,116943.30
2023-01-18T00:17:31.968Z,116943.30
2023-01-18T00:18:34.125Z,116943.30
2023-01-18T00:19:36.874Z,116943.30
2023-01-18T00:20:39.386Z,116943.30
2023-01-18T00:21:41.780Z,116943.30
2023-01-18T00:22:44.510Z,116943.30
2023-01-18T00:23:46.708Z,116943.30
2023-01-18T00:24:49.522Z,116943.30
2023-01-18T00:25:51.736Z,116943.30
2023-01-18T00:26:53.925Z,116943.30
2023-01-18T00:27:56.278Z,116943.30
2023-01-18T00:28:58.457Z,116943.30
2023-01-18T00:30:00.676Z,116943.30
2023-01-18T00:31:02.790Z,116943.30
2023-01-18T00:32:05.302Z,116943.30
2023-01-18T00:33:07.733Z,116943.30
2023-01-18T00:34:10.062Z,116943.30
2023-01-18T00:35:12.302Z,116943.30
2023-01-18T00:36:14.540Z,116943.30
2023-01-18T00:37:16.801Z,116943.30
2023-01-18T00:38:19.221Z,116943.30
2023-01-18T00:39:21.457Z,116943.30
2023-01-18T00:40:23.708Z,116943.30
2023-01-18T00:41:25.874Z,116943.30
2023-01-18T00:42:28.175Z,116943.30
2023-01-18T00:43:30.521Z,116943.30
2023-01-18T00:44:32.780Z,116943.30
2023-01-18T00:45:35.113Z,116943.30
2023-01-18T00:46:37.325Z,116943.30
2023-01-18T00:47:39.561Z,116943.30
2023-01-18T00:48:41.923Z,116943.30
2023-01-18T00:49:44.103Z,116943.30
2023-01-18T00:50:46.264Z,116943.30
2023-01-18T00:51:48.474Z,116943.30
2023-01-18T00:52:50.751Z,116943.30
2023-01-18T00:53:53.114Z,116943.30
2023-01-18T00:54:55.290Z,116943.30
2023-01-18T00:55:57.461Z,116943.30
2023-01-18T00:56:59.684Z,116943.30
2023-01-18T00:58:02.093Z,116943.30
2023-01-18T00:59:04.689Z,116943.30
2023-01-18T01:00:07.117Z,116943.30
2023-01-18T01:01:09.670Z,116943.30
2023-01-18T01:02:12.098Z,116943.30
2023-01-18T01:03:14.431Z,116943.30
2023-01-18T01:04:16.948Z,116943.30
2023-01-18T01:05:19.399Z,116943.30
2023-01-18T01:06:21.618Z,116943.30
2023-01-18T01:07:33.122Z,116943.30
2023-01-18T01:08:35.896Z,116943.30
2023-01-18T01:09:38.553Z,116943.30
2023-01-18T01:10:41.223Z,116943.30
2023-01-18T01:11:43.909Z,116943.30
2023-01-18T01:12:46.578Z,116943.30
2023-01-18T01:13:49.149Z,116943.30
2023-01-18T01:14:51.704Z,116943.30
2023-01-18T01:15:54.378Z,116943.30
2023-01-18T01:16:57.162Z,116943.30
2023-01-18T01:17:59.704Z,116943.30
2023-01-18T01:19:02.385Z,116943.30
2023-01-18T01:20:04.942Z,116943.30
2023-01-18T01:21:07.657Z,116943.30
2023-01-18T01:22:10.294Z,116943.30
2023-01-18T01:23:12.960Z,116943.30
2023-01-18T01:24:15.623Z,116943.30
2023-01-18T01:25:18.296Z,116943.30
2023-01-18T01:26:20.862Z,116943.30
2023-01-18T01:27:23.429Z,116943.30
2023-01-18T01:28:26.100Z,116943.30
2023-01-18T01:29:28.802Z,116943.30
2023-01-18T01:30:31.386Z,116943.30
2023-01-18T01:31:34.001Z,116943.30
2023-01-18T01:32:36.677Z,116943.30
2023-01-18T01:33:39.264Z,116943.30
2023-01-18T01:34:41.810Z,116943.30
2023-01-18T01:35:44.476Z,116943.30
2023-01-18T01:36:47.150Z,116943.30
2023-01-18T01:37:49.715Z,116943.30
2023-01-18T01:38:52.399Z,116943.30
2023-01-18T01:39:54.950Z,116943.30
2023-01-18T01:40:57.637Z,116943.30
2023-01-18T01:42:00.203Z,116943.30
2023-01-18T01:43:02.772Z,116943.30
2023-01-18T01:44:05.550Z,116943.30
2023-01-18T01:45:08.305Z,116943.30
2023-01-18T01:46:11.106Z,116943.30
2023-01-18T01:47:13.845Z,116943.30
2023-01-18T01:48:16.515Z,116943.30
2023-01-18T01:49:19.195Z,116943.30
2023-01-18T01:50:21.879Z,116943.30
2023-01-18T01:51:24.766Z,116943.30
2023-01-18T01:52:27.426Z,116943.30
2023-01-18T01:53:29.969Z,116943.30
2023-01-18T01:54:32.645Z,116943.30
2023-01-18T01:55:35.205Z,116943.30
2023-01-18T01:56:37.976Z,116943.30
2023-01-18T01:57:40.875Z,116943.30
2023-01-18T01:58:43.526Z,116943.30
2023-01-18T01:59:46.309Z,116943.30
2023-01-18T02:00:49.059Z,116943.30
2023-01-18T02:01:51.848Z,116943.30
2023-01-18T02:02:54.616Z,116943.30
2023-01-18T02:03:57.398Z,116943.30
2023-01-18T02:05:00.064Z,116943.30
2023-01-18T02:06:03.349Z,116943.30
2023-01-18T02:07:06.005Z,116943.30
2023-01-18T02:08:08.680Z,116943.30
2023-01-18T02:09:11.358Z,116943.30
2023-01-18T02:10:13.919Z,116943.30
2023-01-18T02:11:16.484Z,116943.30
2023-01-18T02:12:19.073Z,116943.30
2023-01-18T02:13:21.619Z,116943.30
2023-01-18T02:14:24.182Z,116943.30
2023-01-18T02:15:26.855Z,116943.30
2023-01-18T02:16:29.556Z,116943.30
2023-01-18T02:17:32.413Z,116943.30
2023-01-18T02:18:35.277Z,116943.30
2023-01-18T02:19:37.902Z,116943.30
2023-01-18T02:20:40.829Z,116943.30
2023-01-18T02:21:43.611Z,116943.30
2023-01-18T02:22:46.465Z,116943.30
2023-01-18T02:23:49.249Z,116943.30
2023-01-18T02:24:52.113Z,116943.30
2023-01-18T02:25:55.095Z,116943.30
2023-01-18T02:26:57.694Z,116943.30
2023-01-18T02:28:00.234Z,116943.30
2023-01-18T02:29:02.901Z,116943.30
2023-01-18T02:30:05.661Z,116943.30
2023-01-18T02:31:08.678Z,116943.30
2023-01-18T02:32:11.540Z,116943.30
2023-01-18T02:33:14.084Z,116943.30
2023-01-18T02:34:16.980Z,116943.30
2023-01-18T02:35:19.740Z,116943.30
2023-01-18T02:36:22.618Z,116943.30
2023-01-18T02:37:25.492Z,116943.30
2023-01-18T02:38:28.163Z,116943.30
2023-01-18T02:39:31.242Z,116943.30
2023-01-18T02:40:33.706Z,116943.30
2023-01-18T02:41:36.811Z,116943.30
2023-01-18T02:42:39.670Z,116943.30
2023-01-18T02:43:42.425Z,116943.30
2023-01-18T02:44:45.247Z,116943.30
2023-01-18T02:45:48.100Z,116943.30
2023-01-18T02:46:50.954Z,116943.30
2023-01-18T02:47:53.625Z,116943.30
2023-01-18T02:48:56.306Z,116943.30
2023-01-18T02:49:59.070Z,116943.30
2023-01-18T02:51:01.748Z,116943.30
2023-01-18T02:52:04.919Z,116943.30
2023-01-18T02:53:07.720Z,116943.30
2023-01-18T02:54:10.277Z,116943.30
2023-01-18T02:55:12.921Z,116943.30
2023-01-18T02:56:15.591Z,116943.30
2023-01-18T02:57:18.670Z,116943.30
2023-01-18T02:58:21.394Z,116943.30
2023-01-18T02:59:23.899Z,116943.30
2023-01-18T03:00:26.582Z,116943.30
2023-01-18T03:01:29.420Z,116943.30
2023-01-18T03:02:32.560Z,116943.30
2023-01-18T03:03:35.503Z,116943.30
2023-01-18T03:04:38.271Z,116943.30
2023-01-18T03:05:40.848Z,116943.30
2023-01-18T03:06:43.823Z,116943.30
2023-01-18T03:07:46.498Z,116943.30
2023-01-18T03:08:49.098Z,116943.30
2023-01-18T03:09:52.035Z,116943.30
2023-01-18T03:10:54.636Z,116943.30
2023-01-18T03:11:57.287Z,116943.30
2023-01-18T03:13:00.283Z,116943.30
2023-01-18T03:14:02.919Z,116943.30
2023-01-18T03:15:05.597Z,116943.30
2023-01-18T03:16:08.164Z,116943.30
2023-01-18T03:17:10.832Z,116943.30
2023-01-18T03:18:13.492Z,116943.30
2023-01-18T03:19:16.161Z,116943.30
2023-01-18T03:20:18.831Z,116943.30
2023-01-18T03:21:21.816Z,116943.30
2023-01-18T03:22:24.491Z,116943.30
2023-01-18T03:23:27.558Z,116943.30
2023-01-18T03:24:30.648Z,116943.30
2023-01-18T03:25:33.230Z,116943.30
2023-01-18T03:26:35.893Z,116943.30
2023-01-18T03:27:38.446Z,116943.30
2023-01-18T03:28:41.330Z,116943.30
2023-01-18T03:29:44.092Z,116943.30
2023-01-18T03:30:47.018Z,116943.30
2023-01-18T03:31:52.409Z,116943.30
2023-01-18T03:32:55.590Z,116943.30
2023-01-18T03:33:58.455Z,116943.30
2023-01-18T03:35:01.317Z,116943.30
2023-01-18T03:36:03.999Z,116943.30
2023-01-18T03:37:06.677Z,116943.30
2023-01-18T03:38:09.250Z,116943.30
2023-01-18T03:39:12.026Z,116943.30
2023-01-18T03:40:14.688Z,116943.30
2023-01-18T03:41:17.353Z,116943.30
2023-01-18T03:42:20.034Z,116943.30
2023-01-18T03:43:22.692Z,116943.30
2023-01-18T03:44:25.509Z,116943.30
2023-01-18T03:45:28.132Z,116943.30
2023-01-18T03:46:30.834Z,116943.30
2023-01-18T03:47:33.384Z,116943.30
2023-01-18T03:48:36.051Z,116943.30
2023-01-18T03:49:38.727Z,116943.30
2023-01-18T03:50:41.296Z,116943.30
2023-01-18T03:51:43.967Z,116943.30
2023-01-18T03:52:46.626Z,116943.30
2023-01-18T03:53:49.190Z,116943.30
2023-01-18T03:54:51.856Z,116943.30
2023-01-18T03:55:54.648Z,116943.30
2023-01-18T03:56:57.416Z,116943.30
2023-01-18T03:58:00.171Z,116943.30
2023-01-18T03:59:02.872Z,116943.30
2023-01-18T04:00:05.939Z,116943.30
2023-01-18T04:01:08.948Z,116943.30
2023-01-18T04:02:11.777Z,116943.30
2023-01-18T04:03:14.482Z,116943.30
2023-01-18T04:04:17.317Z,116943.30
2023-01-18T04:05:20.408Z,116943.30
2023-01-18T04:06:23.171Z,116943.30
2023-01-18T04:07:26.056Z,116943.30
2023-01-18T04:08:28.810Z,116943.30
2023-01-18T04:09:31.690Z,116943.30
2023-01-18T04:10:34.780Z,116943.30
2023-01-18T04:11:37.458Z,116943.30
2023-01-18T04:12:40.321Z,116943.30
2023-01-18T04:13:43.242Z,116943.30
2023-01-18T04:14:46.073Z,116943.30
2023-01-18T04:15:49.088Z,116943.30
2023-01-18T04:16:51.612Z,116943.30
2023-01-18T04:17:54.392Z,116943.30
2023-01-18T04:18:56.956Z,116943.30
2023-01-18T04:19:59.532Z,116943.30
2023-01-18T04:21:02.194Z,116943.30
2023-01-18T04:22:04.759Z,116943.30
2023-01-18T04:23:07.347Z,116943.30
2023-01-18T04:24:09.887Z,116943.30
2023-01-18T04:25:12.670Z,116943.30
2023-01-18T04:26:15.748Z,116943.30
2023-01-18T04:27:18.624Z,116943.30
2023-01-18T04:28:21.381Z,116943.30
2023-01-18T04:29:24.268Z,116943.30
2023-01-18T04:30:27.140Z,116943.30
2023-01-18T04:31:30.160Z,116943.30
2023-01-18T04:32:33.017Z,116943.30
2023-01-18T04:33:35.780Z,116943.30
2023-01-18T04:34:38.575Z,116943.30
2023-01-18T04:35:41.301Z,116943.30
2023-01-18T04:36:44.294Z,116943.30
2023-01-18T04:37:47.059Z,116943.30
2023-01-18T04:38:50.048Z,116943.30
2023-01-18T04:39:52.812Z,116943.30
2023-01-18T04:40:55.578Z,116943.30
2023-01-18T04:41:58.570Z,116943.30
2023-01-18T04:43:01.469Z,116943.30
2023-01-18T04:44:04.413Z,116943.30
2023-01-18T04:45:07.072Z,116943.30
2023-01-18T04:46:10.274Z,116943.30
2023-01-18T04:47:13.330Z,116943.30
2023-01-18T04:48:16.407Z,116943.30
2023-01-18T04:49:19.083Z,116943.30
2023-01-18T04:50:21.861Z,116943.30
2023-01-18T04:51:24.828Z,116943.30
2023-01-18T04:52:28.015Z,116943.30
2023-01-18T04:53:30.788Z,116943.30
2023-01-18T04:54:33.871Z,116943.30
2023-01-18T04:55:36.442Z,116943.30
2023-01-18T04:56:39.108Z,116943.30
2023-01-18T04:57:41.981Z,116943.30
2023-01-18T04:58:44.763Z,116943.30
2023-01-18T04:59:47.324Z,116943.30
2023-01-18T05:00:49.988Z,116943.30
2023-01-18T05:01:52.553Z,116943.30
2023-01-18T05:02:55.372Z,116943.30
2023-01-18T05:03:58.005Z,116943.30
2023-01-18T05:05:00.680Z,116943.30
2023-01-18T05:06:03.335Z,116943.30
2023-01-18T05:07:06.028Z,116943.30
2023-01-18T05:08:09.106Z,116943.30
2023-01-18T05:09:12.790Z,116943.30
2023-01-18T05:10:15.550Z,116943.30
2023-01-18T05:11:18.339Z,116943.30
2023-01-18T05:12:20.999Z,116943.30
2023-01-18T05:13:24.083Z,116943.30
2023-01-18T05:14:26.651Z,116943.30
2023-01-18T05:15:29.342Z,116943.30
2023-01-18T05:16:32.297Z,116943.30
2023-01-18T05:17:34.910Z,116943.30
2023-01-18T05:18:37.948Z,116943.30
2023-01-18T05:19:40.575Z,116943.30
2023-01-18T05:20:43.176Z,116943.30
2023-01-18T05:21:45.971Z,116943.30
2023-01-18T05:22:48.723Z,116943.30
2023-01-18T05:23:51.801Z,116943.30
2023-01-18T05:24:54.361Z,116943.30
2023-01-18T05:25:57.028Z,116943.30
2023-01-18T05:26:59.929Z,116943.30
2023-01-18T05:28:02.814Z,116943.30
2023-01-18T05:29:05.590Z,116943.30
2023-01-18T05:30:09.151Z,116943.30
2023-01-18T05:31:11.992Z,116943.30
2023-01-18T05:32:14.689Z,116943.30
2023-01-18T05:33:17.357Z,116943.30
2023-01-18T05:34:20.127Z,116943.30
2023-01-18T05:35:22.925Z,116943.30
2023-01-18T05:36:25.579Z,116943.30
2023-01-18T05:37:28.238Z,116943.30
2023-01-18T05:38:31.171Z,116943.30
2023-01-18T05:39:34.008Z,116943.30
2023-01-18T05:40:36.786Z,116943.30
2023-01-18T05:41:39.330Z,116943.30
2023-01-18T05:42:42.001Z,116943.30
2023-01-18T05:43:44.575Z,116943.30
2023-01-18T05:44:47.243Z,116943.30
2023-01-18T05:45:50.135Z,116943.30
2023-01-18T05:46:52.686Z,116943.30
2023-01-18T05:47:55.248Z,116943.30
2023-01-18T05:48:58.039Z,116943.30
2023-01-18T05:50:00.931Z,116943.30
2023-01-18T05:51:03.890Z,116943.30
2023-01-18T05:52:06.562Z,116943.30
2023-01-18T05:53:09.331Z,116943.30
2023-01-18T05:54:12.004Z,116943.30
2023-01-18T05:55:14.804Z,116943.30
2023-01-18T05:56:17.850Z,116943.30
2023-01-18T05:57:20.628Z,116943.30
2023-01-18T05:58:23.197Z,116943.30
2023-01-18T05:59:25.951Z,116943.30
2023-01-18T06:00:28.748Z,116943.30
2023-01-18T06:01:31.458Z,116943.30
2023-01-18T06:02:34.175Z,116943.30
2023-01-18T06:03:36.847Z,116943.30
2023-01-18T06:04:39.561Z,116943.30
2023-01-18T06:05:42.278Z,116943.30
2023-01-18T06:06:45.058Z,116943.30
2023-01-18T06:07:47.735Z,116943.30
2023-01-18T06:08:50.596Z,116943.30
2023-01-18T06:09:53.266Z,116943.30
2023-01-18T06:10:56.054Z,116943.30
2023-01-18T06:11:59.235Z,116943.30
2023-01-18T06:13:01.994Z,116943.30
2023-01-18T06:14:04.565Z,116943.30
2023-01-18T06:15:07.140Z,116943.30
2023-01-18T06:16:09.775Z,116943.30
2023-01-18T06:17:12.579Z,116943.30
2023-01-18T06:18:15.446Z,116943.30
2023-01-18T06:19:18.221Z,116943.30
2023-01-18T06:20:20.995Z,116943.30
2023-01-18T06:21:24.069Z,116943.30
2023-01-18T06:22:26.947Z,116943.30
2023-01-18T06:23:29.824Z,116943.30
2023-01-18T06:24:32.403Z,116943.30
2023-01-18T06:25:35.167Z,116943.30
2023-01-18T06:26:38.145Z,116943.30
2023-01-18T06:27:40.698Z,116943.30
2023-01-18T06:28:43.380Z,116943.30
2023-01-18T06:29:46.048Z,116943.30
2023-01-18T06:30:48.611Z,116943.30
2023-01-18T06:31:51.439Z,116943.30
2023-01-18T06:32:54.064Z,116943.30
2023-01-18T06:33:56.639Z,116943.30
2023-01-18T06:34:59.404Z,116943.30
2023-01-18T06:36:02.397Z,116943.30
2023-01-18T06:37:05.347Z,116943.30
2023-01-18T06:38:08.025Z,116943.30
2023-01-18T06:39:10.688Z,116943.30
2023-01-18T06:40:13.256Z,116943.30
2023-01-18T06:41:15.819Z,116943.30
2023-01-18T06:42:18.900Z,116943.30
2023-01-18T06:43:21.799Z,116943.30
2023-01-18T06:44:24.458Z,116943.30
2023-01-18T06:45:27.215Z,116943.30
2023-01-18T06:46:30.015Z,116943.30
2023-01-18T06:47:32.766Z,116943.30
2023-01-18T06:48:35.634Z,116943.30
2023-01-18T06:49:38.908Z,116943.30
2023-01-18T06:50:41.702Z,116943.30
2023-01-18T06:51:44.393Z,116943.30
2023-01-18T06:52:47.472Z,116943.30
2023-01-18T06:53:50.622Z,116943.30
2023-01-18T06:54:53.464Z,116943.30
2023-01-18T06:55:56.173Z,116943.30
2023-01-18T06:56:58.788Z,116943.30
2023-01-18T06:58:01.316Z,116943.30
2023-01-18T06:59:03.987Z,116943.30
2023-01-18T07:00:06.749Z,116943.30
2023-01-18T07:01:09.570Z,116943.30
2023-01-18T07:02:12.531Z,116943.30
2023-01-18T07:03:15.460Z,116943.30
2023-01-18T07:04:18.339Z,116943.30
2023-01-18T07:05:20.914Z,116943.30
2023-01-18T07:06:23.580Z,116943.30
2023-01-18T07:07:26.251Z,116943.30
2023-01-18T07:08:29.424Z,116943.30
2023-01-18T07:09:32.017Z,116943.30
2023-01-18T07:10:34.996Z,116943.30
2023-01-18T07:11:37.667Z,116943.30
2023-01-18T07:12:40.317Z,116943.30
2023-01-18T07:13:43.280Z,116943.30
2023-01-18T07:14:46.271Z,116943.30
2023-01-18T07:15:48.860Z,116943.30
2023-01-18T07:16:51.767Z,116943.30
2023-01-18T07:17:54.460Z,116943.30
2023-01-18T07:18:56.956Z,116943.30
2023-01-18T07:19:59.421Z,116943.30
2023-01-18T07:21:02.202Z,116943.30
2023-01-18T07:22:05.064Z,116943.30
2023-01-18T07:23:07.853Z,116943.30
2023-01-18T07:24:10.929Z,116943.30
2023-01-18T07:25:13.841Z,116943.30
2023-01-18T07:26:16.609Z,116943.30
2023-01-18T07:27:19.537Z,116943.30
2023-01-18T07:28:22.222Z,116943.30
2023-01-18T07:29:25.290Z,116943.30
2023-01-18T07:30:28.262Z,116943.30
2023-01-18T07:31:33.907Z,116943.30
2023-01-18T07:32:36.805Z,116943.30
2023-01-18T07:33:39.642Z,116943.30
2023-01-18T07:34:42.721Z,116943.30
2023-01-18T07:35:45.804Z,116943.30
2023-01-18T07:36:48.894Z,116943.30
2023-01-18T07:37:51.858Z,116943.30
2023-01-18T07:38:55.064Z,116943.30
2023-01-18T07:39:58.023Z,116943.30
2023-01-18T07:41:00.997Z,116943.30
2023-01-18T07:42:04.189Z,116943.30
2023-01-18T07:43:07.559Z,116943.30
2023-01-18T07:44:10.353Z,116943.30
2023-01-18T07:45:13.725Z,116943.30
2023-01-18T07:46:17.119Z,116943.30
2023-01-18T07:47:19.796Z,116943.30
2023-01-18T07:48:22.541Z,116943.30
2023-01-18T07:49:25.132Z,116943.30
2023-01-18T07:50:27.809Z,116943.30
2023-01-18T07:51:30.496Z,116943.30
2023-01-18T07:52:33.035Z,116943.30
2023-01-18T07:53:36.014Z,116943.30
2023-01-18T07:54:39.084Z,116943.30
2023-01-18T07:55:42.093Z,116943.30
2023-01-18T07:56:44.840Z,116943.30
2023-01-18T07:57:48.035Z,116943.30
2023-01-18T07:58:51.010Z,116943.30
2023-01-18T07:59:54.183Z,116943.30
2023-01-18T08:00:57.281Z,116943.30
2023-01-18T08:02:00.437Z,116943.30
2023-01-18T08:03:04.081Z,116943.30
2023-01-18T08:04:07.116Z,116943.30
2023-01-18T08:05:10.750Z,116943.30
2023-01-18T08:06:13.807Z,116943.30
2023-01-18T08:07:16.954Z,116943.30
2023-01-18T08:08:19.838Z,116943.30
2023-01-18T08:09:22.920Z,116943.30
2023-01-18T08:10:25.959Z,116943.30
2023-01-18T08:11:28.569Z,116943.30
2023-01-18T08:12:31.150Z,116943.30
2023-01-18T08:13:33.815Z,116943.30
2023-01-18T08:14:36.504Z,116943.30
2023-01-18T08:15:39.394Z,116943.30
2023-01-18T08:16:42.139Z,116943.30
2023-01-18T08:17:44.806Z,116943.30
2023-01-18T08:18:47.468Z,116943.30
2023-01-18T08:19:50.138Z,116943.30
2023-01-18T08:20:55.094Z,116943.30
2023-01-18T08:21:57.029Z,116918.86
2023-01-18T08:23:00.023Z,116903.59
2023-01-18T08:24:02.988Z,116883.23
2023-01-18T08:25:05.645Z,116828.25
2023-01-18T08:26:08.320Z,116834.36
2023-01-18T08:27:10.996Z,116799.74
2023-01-18T08:28:13.665Z,116762.08
2023-01-18T08:29:16.215Z,116698.96
2023-01-18T08:30:18.786Z,116710.16
2023-01-18T08:31:21.638Z,116702.02
2023-01-18T08:32:24.229Z,116653.15
2023-01-18T08:33:26.795Z,116591.05
2023-01-18T08:34:29.367Z,116547.27
2023-01-18T08:35:32.088Z,116504.52
2023-01-18T08:36:34.708Z,116461.77
2023-01-18T08:37:37.376Z,116426.14
2023-01-18T08:38:39.991Z,116461.77
2023-01-18T08:39:42.616Z,116462.78
2023-01-18T08:40:45.302Z,116459.73
2023-01-18T08:41:47.944Z,116496.37
2023-01-18T08:42:50.610Z,116488.23
2023-01-18T08:43:56.387Z,116496.37
2023-01-18T08:44:58.930Z,116461.77
2023-01-18T08:46:02.025Z,116453.62
2023-01-18T08:47:05.077Z,116490.27
2023-01-18T08:48:07.950Z,116484.16
2023-01-18T08:49:11.136Z,116447.52
2023-01-18T08:50:14.223Z,116414.94
2023-01-18T08:51:17.385Z,116423.08
2023-01-18T08:52:20.267Z,116436.31
2023-01-18T08:53:23.342Z,116410.87
2023-01-18T08:54:25.929Z,116378.30
2023-01-18T08:55:28.659Z,116381.34
2023-01-18T08:56:31.272Z,116362.00
2023-01-18T08:57:33.835Z,116381.34
2023-01-18T08:58:36.402Z,116357.93
2023-01-18T08:59:39.071Z,116322.30
2023-01-18T09:00:41.974Z,116331.46
2023-01-18T09:01:44.732Z,116292.78
2023-01-18T09:02:47.354Z,116243.92
2023-01-18T09:03:49.950Z,116309.07
2023-01-18T09:04:52.514Z,116306.02
2023-01-18T09:05:55.252Z,116319.25
2023-01-18T09:06:58.068Z,116328.41
2023-01-18T09:08:00.642Z,116292.78
2023-01-18T09:09:03.202Z,116292.78
2023-01-18T09:10:06.164Z,116284.64
2023-01-18T09:11:09.354Z,116222.55
2023-01-18T09:12:12.137Z,116209.31
2023-01-18T09:13:14.726Z,116192.01
2023-01-18T09:14:17.297Z,116205.24
2023-01-18T09:15:19.943Z,116197.09
2023-01-18T09:16:22.661Z,116238.83
2023-01-18T09:17:25.273Z,116221.53
2023-01-18T09:18:27.997Z,116237.81
2023-01-18T09:19:31.159Z,116247.99
2023-01-18T09:20:34.083Z,116256.14
2023-01-18T09:21:37.235Z,116223.56
2023-01-18T09:22:40.775Z,116239.84
2023-01-18T09:23:43.936Z,116239.84
2023-01-18T09:24:47.319Z,116268.35
2023-01-18T09:25:50.823Z,116311.11
2023-01-18T09:26:54.631Z,116319.25
2023-01-18T09:27:57.837Z,116272.42
2023-01-18T09:29:01.199Z,116264.28
2023-01-18T09:30:04.679Z,116329.42
2023-01-18T09:31:08.092Z,116312.13
2023-01-18T09:32:11.827Z,116319.25
2023-01-18T09:33:15.193Z,116541.16
2023-01-18T09:34:20.168Z,116794.66
2023-01-18T09:35:23.644Z,116943.30
2023-01-18T09:36:27.152Z,116943.30
2023-01-18T09:37:30.738Z,116943.30
2023-01-18T09:38:34.240Z,116943.30
2023-01-18T09:39:51.071Z,116943.30
2023-01-18T09:40:42.789Z,116943.30
2023-01-18T09:41:46.016Z,116943.30
2023-01-18T09:42:49.416Z,116943.30
2023-01-18T09:43:52.852Z,116943.30
2023-01-18T09:44:56.131Z,116943.30
2023-01-18T09:45:59.192Z,116943.30
2023-01-18T09:47:02.753Z,116916.83
2023-01-18T09:48:06.338Z,116399.67
2023-01-18T09:49:09.973Z,115982.33
2023-01-18T09:50:13.540Z,115641.36
2023-01-18T09:51:20.780Z,115250.55
2023-01-18T09:52:24.295Z,114992.07
2023-01-18T09:53:27.898Z,114812.98
2023-01-18T09:54:31.679Z,114850.62
2023-01-18T09:55:35.473Z,114796.69
2023-01-18T09:56:39.450Z,114770.23
2023-01-18T09:57:42.911Z,114610.48
2023-01-18T09:58:48.946Z,114566.73
2023-01-18T09:59:53.323Z,114782.45
2023-01-18T10:01:01.215Z,114421.23
2023-01-18T10:02:07.334Z,114443.62
2023-01-18T10:03:10.647Z,114447.69
2023-01-18T10:04:16.877Z,114526.03
2023-01-18T10:05:20.095Z,114776.34
2023-01-18T10:06:23.693Z,115245.47
2023-01-18T10:07:27.595Z,115418.47
2023-01-18T10:08:31.179Z,115843.90
2023-01-18T10:09:35.389Z,116278.53
2023-01-18T10:10:39.229Z,116840.47
2023-01-18T10:11:42.769Z,116943.30
2023-01-18T10:12:46.547Z,116943.30
2023-01-18T10:13:51.089Z,116943.30
2023-01-18T10:14:57.936Z,116943.30
2023-01-18T10:16:02.683Z,116943.30
2023-01-18T10:17:12.695Z,116943.30
2023-01-18T10:18:16.807Z,116943.30
2023-01-18T10:19:20.769Z,116943.30
2023-01-18T10:20:24.917Z,116943.30
2023-01-18T10:21:28.635Z,116943.30
2023-01-18T10:22:32.145Z,116943.30
2023-01-18T10:23:41.471Z,116943.30
2023-01-18T10:24:45.417Z,116943.30
2023-01-18T10:25:49.011Z,116943.30
2023-01-18T10:26:52.922Z,116943.30
2023-01-18T10:27:56.408Z,116943.30
2023-01-18T10:29:00.111Z,116943.30
2023-01-18T10:30:03.679Z,116943.30
2023-01-18T10:31:07.082Z,116943.30
2023-01-18T10:32:10.672Z,116943.30
2023-01-18T10:33:14.244Z,116943.30
2023-01-18T10:34:18.381Z,116943.30
2023-01-18T10:35:21.972Z,116943.30
2023-01-18T10:36:25.407Z,116943.30
2023-01-18T10:37:28.822Z,116943.30
2023-01-18T10:38:32.518Z,116943.30
2023-01-18T10:39:36.206Z,116943.30
2023-01-18T10:40:39.818Z,116943.30
2023-01-18T10:41:43.914Z,116943.30
2023-01-18T10:42:50.317Z,116943.30
2023-01-18T10:43:53.873Z,116943.30
2023-01-18T10:45:03.679Z,116943.30
2023-01-18T10:46:10.764Z,116943.30
2023-01-18T10:47:17.804Z,116943.30
2023-01-18T10:48:28.477Z,116943.30
2023-01-18T10:49:31.773Z,116943.30
2023-01-18T10:50:36.719Z,116943.30
2023-01-18T10:51:40.016Z,116943.30
2023-01-18T10:52:43.216Z,116943.30
2023-01-18T10:53:46.544Z,116943.30
2023-01-18T10:54:50.152Z,116943.30
2023-01-18T10:55:53.629Z,116943.30
2023-01-18T10:56:57.017Z,116943.30
2023-01-18T10:58:01.124Z,116943.30
2023-01-18T10:59:04.599Z,116943.30
2023-01-18T11:00:11.173Z,116943.30
2023-01-18T11:01:14.934Z,116943.30
2023-01-18T11:02:18.579Z,116943.30
2023-01-18T11:03:22.387Z,116943.30
2023-01-18T11:04:25.855Z,116943.30
2023-01-18T11:05:29.667Z,116943.30
2023-01-18T11:06:32.923Z,116943.30
2023-01-18T11:07:36.319Z,116943.30
2023-01-18T11:08:40.522Z,116943.30
2023-01-18T11:09:43.911Z,116943.30
2023-01-18T11:11:00.351Z,116943.30
2023-01-18T11:12:06.471Z,116943.30
2023-01-18T11:13:10.095Z,116943.30
2023-01-18T11:14:13.315Z,116943.30
2023-01-18T11:15:19.177Z,116943.30
2023-01-18T11:16:22.569Z,116943.30
2023-01-18T11:17:29.317Z,116943.30
2023-01-18T11:18:33.165Z,116943.30
2023-01-18T11:19:40.133Z,116943.30
2023-01-18T11:20:43.487Z,116943.30
2023-01-18T11:21:47.262Z,116943.30
2023-01-18T11:22:58.035Z,116943.30
2023-01-18T11:24:01.950Z,116943.30
2023-01-18T11:25:05.307Z,116943.30
2023-01-18T11:26:11.088Z,116943.30
2023-01-18T11:27:14.582Z,116943.30
2023-01-18T11:28:20.182Z,116943.30
2023-01-18T11:29:23.566Z,116943.30
2023-01-18T11:30:27.123Z,116943.30
2023-01-18T11:31:30.369Z,116943.30
2023-01-18T11:32:33.733Z,116943.30
2023-01-18T11:33:39.828Z,116943.30
2023-01-18T11:34:42.033Z,116943.30
2023-01-18T11:35:45.215Z,116943.30
2023-01-18T11:36:48.600Z,116943.30
2023-01-18T11:37:52.014Z,116943.30
2023-01-18T11:38:57.095Z,116943.30
2023-01-18T11:40:00.642Z,116943.30
2023-01-18T11:41:04.118Z,116943.30
2023-01-18T11:42:07.587Z,116943.30
2023-01-18T11:43:11.113Z,116943.30
2023-01-18T11:44:14.377Z,116943.30
2023-01-18T11:45:17.852Z,116943.30
2023-01-18T11:46:21.463Z,116943.30
2023-01-18T11:47:24.741Z,116943.30
2023-01-18T11:48:28.016Z,116943.30
2023-01-18T11:49:31.651Z,116943.30
2023-01-18T11:50:34.787Z,116943.30
2023-01-18T11:51:38.282Z,116943.30
2023-01-18T11:52:41.651Z,116943.30
2023-01-18T11:53:45.172Z,116943.30
2023-01-18T11:54:48.533Z,116943.30
2023-01-18T11:55:53.667Z,116943.30
2023-01-18T11:56:57.458Z,116943.30
2023-01-18T11:58:01.469Z,116943.30
2023-01-18T11:59:05.152Z,116943.30
2023-01-18T12:00:09.667Z,116943.30